Eagle River, Canada
Current Conditions -  °F | °C
As of 9:00 AM on Wednesday 22 Oct 2014 (Local Time) from CYHD Reporting Station
Clear Clear  
Wind Chill: 37°   Ceiling: Unl
Heat Index: 45°   Visibility: 9mi
Dew Point: 37°   Wind: 16mph
Humidity: 76%   Direction: 170°S
Pressure: 30.02"   Gusts: 23mph
Location:  49.78°N, 93.18°W
Report Text: CYHD 221400Z AUTO 17014G20KT 9SM CLR 07/03 A3002 RMK SLP181
Loading
Personal Weather Stations






























Interactive Weather Map
Tropical Storm Tracking
New forecast layout! Learn more

10-Day Weather Forecast

Advertisements
Track Severe Weather on mobile